Time;durP1;ratioP1;P1;durP2;ratioP2;P2;SDS_P1;SDS_P2;PMS_P1;PMS_P2;Temp;Humidity;BMP_temperature;BMP_pressure;BME280_temperature;BME280_humidity;BME280_pressure;Samples;Min_cycle;Max_cycle;Signal;HPM_P1;HPM_P2
2022/06/03 00:02:34;;;;;;;7.57;5.22;;;;;;;13.22;59.43;101852.66;5017635;28;20021;-81
2022/06/03 00:05:24;;;;;;;6.20;5.15;;;;;;;13.18;58.84;101847.66;5026058;28;20030;-81
2022/06/03 00:08:07;;;;;;;5.82;4.90;;;;;;;13.19;58.53;101855.53;5012422;28;20089;-80
2022/06/03 00:11:05;;;;;;;7.20;5.53;;;;;;;13.16;58.62;101847.75;5024930;28;20038;-81
2022/06/03 00:13:51;;;;;;;6.00;5.43;;;;;;;13.08;59.25;101856.28;5026816;28;20037;-82
2022/06/03 00:16:46;;;;;;;6.60;5.90;;;;;;;13.05;60.06;101858.31;5024725;28;20288;-80
2022/06/03 00:19:36;;;;;;;6.97;5.70;;;;;;;13.04;59.58;101853.94;5024606;28;20106;-81
2022/06/03 00:22:28;;;;;;;5.72;5.22;;;;;;;12.98;60.21;101852.56;5017045;28;20033;-81
2022/06/03 00:25:34;;;;;;;10.07;5.97;;;;;;;12.96;60.03;101857.16;5054060;28;20054;-81
2022/06/03 00:28:06;;;;;;;6.03;5.20;;;;;;;12.92;60.43;101853.88;5003569;28;20050;-82
2022/06/03 00:30:53;;;;;;;6.18;5.68;;;;;;;12.89;61.17;101853.22;5020063;28;20034;-79
2022/06/03 00:33:49;;;;;;;6.60;5.22;;;;;;;12.88;60.41;101854.19;5024353;28;20037;-81
2022/06/03 00:36:45;;;;;;;9.90;5.65;;;;;;;12.85;60.35;101851.72;5030995;28;20026;-81
2022/06/03 00:39:37;;;;;;;7.25;6.07;;;;;;;12.80;60.54;101857.38;5021689;28;20120;-80
2022/06/03 00:42:18;;;;;;;6.57;5.38;;;;;;;12.78;60.73;101846.81;5031372;28;20033;-81
2022/06/03 00:44:49;;;;;;;7.05;5.97;;;;;;;12.74;61.97;101850.69;5030599;28;20029;-81
2022/06/03 00:47:50;;;;;;;5.82;5.25;;;;;;;12.77;60.91;101853.13;5030332;28;20140;-81
2022/06/03 00:50:43;;;;;;;8.07;5.55;;;;;;;12.75;60.54;101851.50;5016885;28;20018;-82
2022/06/03 00:53:34;;;;;;;6.32;5.30;;;;;;;12.69;61.30;101850.16;5031656;28;20038;-81
2022/06/03 00:56:22;;;;;;;6.18;5.57;;;;;;;12.69;60.88;101844.81;5033314;28;20034;-80
2022/06/03 00:58:52;;;;;;;6.33;5.77;;;;;;;12.64;62.07;101848.75;5033465;28;20030;-80
2022/06/03 01:01:23;;;;;;;6.15;5.55;;;;;;;12.59;61.80;101843.75;5040493;28;20089;-79
2022/06/03 01:03:59;;;;;;;6.45;5.82;;;;;;;12.61;61.77;101847.16;5034652;28;20094;-81
2022/06/03 01:06:34;;;;;;;6.00;5.40;;;;;;;12.56;62.55;101843.97;5021332;28;20026;-80
2022/06/03 01:09:15;;;;;;;6.47;5.72;;;;;;;12.55;61.90;101847.56;5015462;28;20037;-80
2022/06/03 01:11:49;;;;;;;6.20;5.70;;;;;;;12.51;62.54;101841.59;5032327;28;20052;-80
2022/06/03 01:14:45;;;;;;;7.10;6.40;;;;;;;12.50;62.01;101836.38;5036074;28;20014;-81
2022/06/03 01:17:23;;;;;;;6.55;5.53;;;;;;;12.48;62.61;101833.81;5036221;28;20026;-80
2022/06/03 01:20:01;;;;;;;6.32;5.72;;;;;;;12.46;62.42;101833.06;5017620;28;20041;-81
2022/06/03 01:22:54;;;;;;;7.30;6.05;;;;;;;12.46;62.22;101829.56;5027581;28;20018;-81
2022/06/03 01:25:36;;;;;;;6.28;5.47;;;;;;;12.39;62.91;101822.00;5032039;28;20026;-80
2022/06/03 01:28:22;;;;;;;5.75;5.25;;;;;;;12.42;62.64;101825.41;5036624;28;20029;-81
2022/06/03 01:31:16;;;;;;;6.10;5.35;;;;;;;12.42;62.46;101820.91;5044616;27;20037;-82
2022/06/03 01:34:02;;;;;;;7.35;5.90;;;;;;;12.39;62.91;101815.81;5015786;28;20094;-81
2022/06/03 01:37:03;;;;;;;6.60;5.90;;;;;;;12.39;62.77;101823.81;5036294;27;20034;-81
2022/06/03 01:39:37;;;;;;;6.47;5.88;;;;;;;12.36;63.34;101813.34;5033215;28;20029;-81
2022/06/03 01:42:14;;;;;;;6.28;5.68;;;;;;;12.35;63.04;101815.16;5040775;28;20030;-81
2022/06/03 01:44:51;;;;;;;7.28;5.90;;;;;;;12.33;63.56;101806.41;5026660;28;20036;-79
2022/06/03 01:47:36;;;;;;;6.45;5.63;;;;;;;12.32;63.59;101802.06;5020513;28;20030;-80
2022/06/03 01:50:17;;;;;;;6.35;5.55;;;;;;;12.32;63.54;101804.72;5026928;28;20094;-80
2022/06/03 01:53:04;;;;;;;6.05;5.50;;;;;;;12.30;63.89;101811.09;5030660;28;20030;-80
2022/06/03 01:56:06;;;;;;;7.45;5.70;;;;;;;12.31;63.15;101803.00;5031718;28;20030;-81
2022/06/03 01:58:38;;;;;;;5.68;5.28;;;;;;;12.29;63.71;101796.06;5036660;28;20034;-81
2022/06/03 02:01:35;;;;;;;6.70;6.07;;;;;;;12.31;62.99;101808.34;5029383;28;20041;-80
2022/06/03 02:04:12;;;;;;;6.35;5.78;;;;;;;12.26;63.68;101801.59;5034338;28;20062;-81
2022/06/03 02:07:10;;;;;;;6.57;5.75;;;;;;;12.25;63.44;101806.09;5029439;28;20040;-81
2022/06/03 02:10:15;;;;;;;5.90;5.32;;;;;;;12.24;63.36;101792.88;5019538;28;20026;-81
2022/06/03 02:13:09;;;;;;;6.47;5.82;;;;;;;12.20;63.45;101786.91;5046146;27;20037;-81
2022/06/03 02:15:47;;;;;;;7.32;5.85;;;;;;;12.19;64.17;101779.84;5030717;28;20026;-81
2022/06/03 02:18:31;;;;;;;6.70;6.00;;;;;;;12.14;64.28;101784.66;5031035;28;20026;-81
2022/06/03 02:21:15;;;;;;;6.85;5.95;;;;;;;12.15;63.65;101791.69;5036747;28;20185;-82
2022/06/03 02:24:18;;;;;;;6.57;5.97;;;;;;;12.14;63.91;101787.31;5021112;28;20057;-81
2022/06/03 02:27:04;;;;;;;7.38;5.95;;;;;;;12.11;63.69;101795.53;5027095;28;20034;-81
2022/06/03 02:33:09;;;;;;;6.50;5.90;;;;;;;12.07;64.21;101788.69;5024244;28;20028;-80
2022/06/03 02:35:47;;;;;;;7.18;5.90;;;;;;;12.06;64.22;101787.84;5032804;28;20022;-82
2022/06/03 02:38:33;;;;;;;7.82;6.32;;;;;;;12.02;64.78;101783.69;5034948;28;20018;-82
2022/06/03 02:41:17;;;;;;;7.65;5.82;;;;;;;12.02;64.58;101789.88;5020793;28;20045;-83
2022/06/03 02:44:01;;;;;;;7.38;6.50;;;;;;;11.99;65.16;101786.53;5033763;28;20028;-82
2022/06/03 02:46:45;;;;;;;7.93;6.13;;;;;;;12.02;64.64;101781.03;5027911;28;20037;-80
2022/06/03 02:49:28;;;;;;;7.13;6.43;;;;;;;11.96;65.72;101776.97;5033093;28;20059;-81
2022/06/03 02:52:18;;;;;;;7.20;6.43;;;;;;;11.98;64.37;101768.88;5022844;28;20042;-82
2022/06/03 02:55:04;;;;;;;8.60;5.97;;;;;;;11.95;64.72;101767.25;5021183;28;20018;-81
2022/06/03 02:57:44;;;;;;;8.18;6.57;;;;;;;11.91;65.16;101776.44;5035041;28;20025;-82
2022/06/03 03:00:17;;;;;;;6.80;6.20;;;;;;;11.87;65.42;101779.38;5028199;28;20014;-81
2022/06/03 03:03:25;;;;;;;7.05;6.35;;;;;;;11.87;64.92;101774.88;5022810;28;20023;-82
2022/06/03 03:06:15;;;;;;;6.93;6.25;;;;;;;11.82;65.91;101777.00;5071721;28;20109;-81
2022/06/03 03:09:14;;;;;;;7.03;6.32;;;;;;;11.84;64.97;101785.75;5028372;28;20046;-82
2022/06/03 03:12:07;;;;;;;7.60;6.60;;;;;;;11.78;65.97;101787.00;5036660;27;20021;-82
2022/06/03 03:14:45;;;;;;;7.18;6.50;;;;;;;11.76;65.73;101775.63;5036314;28;20067;-82
2022/06/03 03:17:32;;;;;;;7.55;6.85;;;;;;;11.72;66.56;101771.44;5036954;28;20025;-82
2022/06/03 03:20:22;;;;;;;7.78;6.85;;;;;;;11.71;66.19;101758.22;5041931;28;20064;-82
2022/06/03 03:23:10;;;;;;;6.75;6.13;;;;;;;11.72;66.12;101767.94;5037008;28;20042;-82
2022/06/03 03:25:53;;;;;;;9.75;6.63;;;;;;;11.70;65.87;101769.84;5037264;28;20014;-81
2022/06/03 03:28:33;;;;;;;7.15;6.53;;;;;;;11.68;66.30;101766.44;5024240;28;20088;-81
2022/06/03 03:31:08;;;;;;;7.93;6.65;;;;;;;11.64;67.00;101758.66;5024776;28;20146;-80
2022/06/03 03:33:54;;;;;;;7.60;6.90;;;;;;;11.63;67.29;101764.09;5036577;28;20091;-83
2022/06/03 03:36:58;;;;;;;7.55;6.68;;;;;;;11.62;66.28;101760.59;5031950;28;20097;-80
2022/06/03 03:39:42;;;;;;;7.85;7.05;;;;;;;11.59;66.73;101750.13;5066945;28;20074;-82
2022/06/03 03:42:42;;;;;;;8.13;7.32;;;;;;;11.60;66.15;101750.97;5031460;28;20090;-81
2022/06/03 03:45:13;;;;;;;7.72;7.03;;;;;;;11.54;67.05;101752.25;5036693;28;20018;-82
2022/06/03 03:47:57;;;;;;;7.97;7.18;;;;;;;11.54;66.64;101765.56;5037803;28;20026;-83
2022/06/03 03:50:39;;;;;;;8.77;7.18;;;;;;;11.50;67.93;101757.88;5024388;28;20049;-81
2022/06/03 03:53:16;;;;;;;9.38;7.10;;;;;;;11.48;67.68;101757.97;5034252;28;20496;-82
2022/06/03 03:55:50;;;;;;;8.13;7.35;;;;;;;11.47;67.79;101753.59;5043629;27;20049;-82
2022/06/03 03:58:46;;;;;;;8.48;7.50;;;;;;;11.50;67.38;101755.22;5034987;28;20075;-82
2022/06/03 04:01:20;;;;;;;6.90;6.30;;;;;;;11.46;67.99;101755.41;5034773;28;20060;-82
2022/06/03 04:04:13;;;;;;;8.65;7.03;;;;;;;11.48;67.25;101752.66;5034379;28;20021;-81
2022/06/03 04:06:52;;;;;;;7.78;6.50;;;;;;;11.44;68.33;101748.47;5047221;27;20085;-82
2022/06/03 04:09:48;;;;;;;9.90;7.22;;;;;;;11.47;67.25;101743.81;5044528;28;20026;-80
2022/06/03 04:12:29;;;;;;;8.13;7.35;;;;;;;11.43;68.29;101744.13;5023986;28;20033;-81
2022/06/03 04:15:30;;;;;;;9.98;7.32;;;;;;;11.44;68.09;101743.16;5036060;28;20030;-81
2022/06/03 04:18:17;;;;;;;11.63;7.63;;;;;;;11.40;68.91;101744.31;5036228;28;20049;-81
2022/06/03 04:21:04;;;;;;;7.85;7.00;;;;;;;11.43;67.90;101744.13;5033800;28;20075;-81
2022/06/03 04:23:50;;;;;;;8.88;7.18;;;;;;;11.44;67.92;101743.16;5037533;28;20025;-82
2022/06/03 04:26:37;;;;;;;8.25;7.28;;;;;;;11.41;68.93;101732.75;5031146;28;20034;-81
2022/06/03 04:29:37;;;;;;;9.48;7.95;;;;;;;11.41;68.37;101733.56;5036053;28;20021;-81
2022/06/03 04:32:26;;;;;;;10.00;7.40;;;;;;;11.42;69.07;101726.44;5036429;28;20018;-82
2022/06/03 04:35:28;;;;;;;8.43;6.97;;;;;;;11.45;68.61;101732.41;5041316;28;20030;-81
2022/06/03 04:38:29;;;;;;;8.45;7.63;;;;;;;11.50;68.34;101733.94;5024572;28;20072;-81
2022/06/03 04:41:42;;;;;;;7.97;7.18;;;;;;;11.55;68.17;101740.63;5029954;28;20102;-82
2022/06/03 04:44:35;;;;;;;8.30;7.53;;;;;;;11.61;68.80;101747.38;5056656;28;20049;-82
2022/06/03 04:47:29;;;;;;;11.38;7.75;;;;;;;11.68;68.76;101743.34;5016826;28;20079;-82
2022/06/03 04:50:33;;;;;;;9.38;7.65;;;;;;;11.78;67.95;101746.25;5025222;28;20037;-82
2022/06/03 04:53:25;;;;;;;9.57;7.68;;;;;;;11.89;68.19;101753.50;5036130;28;20050;-82
2022/06/03 04:56:12;;;;;;;9.90;7.65;;;;;;;12.00;68.41;101759.81;5036741;28;20050;-83
2022/06/03 04:58:56;;;;;;;8.57;7.63;;;;;;;12.15;67.36;101754.41;5036268;28;20026;-82
2022/06/03 05:01:41;;;;;;;8.35;7.55;;;;;;;12.24;67.70;101744.94;5036298;28;20041;-83
2022/06/03 05:04:43;;;;;;;9.55;7.80;;;;;;;12.34;67.06;101743.31;5036243;28;20028;-82
2022/06/03 05:07:20;;;;;;;9.18;7.70;;;;;;;12.44;66.74;101747.06;5035648;28;20097;-83
2022/06/03 05:10:10;;;;;;;8.05;7.28;;;;;;;12.54;66.46;101745.47;5032342;28;20037;-82
2022/06/03 05:12:54;;;;;;;9.88;7.95;;;;;;;12.65;66.25;101747.34;5029269;28;20048;-82
2022/06/03 05:15:32;;;;;;;12.13;7.60;;;;;;;12.72;66.18;101740.66;5023884;28;20030;-81
2022/06/03 05:18:01;;;;;;;8.07;7.15;;;;;;;12.78;66.34;101742.84;5036106;27;20026;-83
2022/06/03 05:20:43;;;;;;;8.57;7.70;;;;;;;12.82;66.06;101734.63;5035888;28;20014;-83
2022/06/03 05:23:27;;;;;;;9.77;8.32;;;;;;;12.90;66.28;101734.94;5036063;28;20042;-82
2022/06/03 05:26:43;;;;;;;8.43;7.72;;;;;;;13.04;65.65;101733.94;5034982;28;20041;-83
2022/06/03 05:29:30;;;;;;;17.20;7.95;;;;;;;13.20;65.55;101726.50;5019979;28;20063;-83
2022/06/03 05:32:35;;;;;;;9.07;7.75;;;;;;;13.40;64.96;101726.88;5030884;28;20063;-84
2022/06/03 05:35:21;;;;;;;8.93;7.35;;;;;;;13.67;64.51;101729.28;5032124;28;20041;-83
2022/06/03 05:37:58;;;;;;;9.45;7.60;;;;;;;13.93;64.01;101723.81;5024599;28;20055;-83
2022/06/03 05:40:36;;;;;;;9.38;6.72;;;;;;;14.12;62.90;101734.78;5029923;28;20057;-83
2022/06/03 05:43:28;;;;;;;8.25;7.20;;;;;;;14.40;62.49;101733.44;5032107;28;20034;-83
2022/06/03 05:46:00;;;;;;;7.53;6.68;;;;;;;14.70;61.87;101728.50;5029927;28;20041;-82
2022/06/03 05:48:52;;;;;;;9.63;6.57;;;;;;;14.91;61.52;101726.78;5036094;28;20037;-83
2022/06/03 05:51:44;;;;;;;7.72;6.40;;;;;;;15.15;60.08;101728.41;5013194;28;20041;-82
2022/06/03 05:54:46;;;;;;;8.25;6.43;;;;;;;15.36;59.82;101726.66;5031385;28;20030;-83
2022/06/03 05:57:27;;;;;;;8.02;7.05;;;;;;;15.57;58.69;101724.97;5026811;28;20070;-80
2022/06/03 06:00:20;;;;;;;8.40;6.57;;;;;;;15.83;59.07;101730.88;5046177;27;20034;-81
2022/06/03 06:03:12;;;;;;;8.25;5.97;;;;;;;16.12;58.04;101733.75;5035565;28;20010;-82
2022/06/03 06:06:08;;;;;;;9.20;6.25;;;;;;;16.36;57.43;101724.56;5035662;28;20018;-83
2022/06/03 06:08:45;;;;;;;9.73;6.63;;;;;;;16.59;55.72;101727.91;5026489;28;20045;-82
2022/06/03 06:11:26;;;;;;;11.15;6.85;;;;;;;16.71;56.18;101725.97;5033135;28;20038;-81
2022/06/03 06:14:24;;;;;;;10.60;6.43;;;;;;;16.91;56.21;101718.84;5043389;28;20059;-81
2022/06/03 06:16:52;;;;;;;7.63;6.60;;;;;;;17.09;54.60;101722.56;5033893;28;20022;-82
2022/06/03 06:19:42;;;;;;;7.05;6.20;;;;;;;17.30;55.14;101724.25;5031403;28;20013;-84
2022/06/03 06:22:24;;;;;;;7.80;6.57;;;;;;;17.50;54.45;101731.34;5028542;28;20061;-82
2022/06/03 06:25:34;;;;;;;8.93;6.40;;;;;;;17.78;54.09;101734.16;5041071;28;20043;-83
2022/06/03 06:28:03;;;;;;;8.45;5.97;;;;;;;17.93;52.16;101726.53;5033878;28;20046;-83
2022/06/03 06:30:49;;;;;;;7.00;6.07;;;;;;;18.12;52.10;101718.44;5034868;28;20032;-80
2022/06/03 06:33:32;;;;;;;7.60;6.22;;;;;;;18.38;51.74;101720.44;5019613;28;20042;-81
2022/06/03 06:36:43;;;;;;;10.88;6.22;;;;;;;18.56;51.46;101725.06;5034441;28;20100;-83
2022/06/03 06:39:51;;;;;;;6.53;5.82;;;;;;;18.73;50.73;101729.66;5038460;28;20063;-82
2022/06/03 06:42:25;;;;;;;7.07;5.73;;;;;;;18.96;49.63;101719.34;5034651;28;20093;-83
2022/06/03 06:45:02;;;;;;;7.30;5.57;;;;;;;19.04;48.88;101718.59;5049749;27;20271;-83
2022/06/03 06:48:04;;;;;;;7.45;5.55;;;;;;;19.35;49.50;101721.78;5034562;28;20073;-81
2022/06/03 06:50:45;;;;;;;7.70;5.28;;;;;;;19.55;48.46;101719.78;5049906;27;20013;-82
2022/06/03 06:53:32;;;;;;;6.45;5.30;;;;;;;19.69;47.09;101726.44;5038520;28;20022;-83
2022/06/03 06:56:23;;;;;;;9.15;4.25;;;;;;;19.98;47.67;101722.63;5044705;27;20040;-81
2022/06/03 06:58:57;;;;;;;6.60;5.30;;;;;;;20.12;45.43;101715.84;5026632;28;20011;-81
2022/06/03 07:01:47;;;;;;;7.82;5.28;;;;;;;20.44;47.18;101714.31;5036033;28;20010;-78
2022/06/03 07:04:28;;;;;;;7.80;4.90;;;;;;;20.70;46.84;101712.44;5038578;27;20022;-80
2022/06/03 07:07:15;;;;;;;7.78;4.75;;;;;;;20.87;44.40;101721.44;5038134;28;20089;-81
2022/06/03 07:09:46;;;;;;;6.32;4.68;;;;;;;21.12;43.39;101713.41;5041228;27;20044;-81
2022/06/03 07:12:14;;;;;;;6.25;4.93;;;;;;;21.23;42.87;101712.22;5038169;28;20022;-81
2022/06/03 07:15:12;;;;;;;7.18;5.05;;;;;;;21.51;44.13;101712.78;5037838;28;20014;-81
2022/06/03 07:21:05;;;;;;;9.90;5.33;;;;;;;21.91;43.60;101708.38;5028851;28;20063;-82
2022/06/03 07:23:42;;;;;;;7.38;5.03;;;;;;;22.16;41.77;101703.75;5037224;28;20006;-82
2022/06/03 07:26:34;;;;;;;6.53;4.70;;;;;;;22.40;42.52;101698.47;5037931;28;20017;-82
2022/06/03 07:29:11;;;;;;;5.97;4.40;;;;;;;22.46;41.21;101693.19;5037498;28;20030;-82
2022/06/03 07:31:47;;;;;;;7.97;4.75;;;;;;;22.79;40.72;101701.19;5037751;28;20086;-81
2022/06/03 07:34:26;;;;;;;6.70;5.20;;;;;;;22.84;40.68;101698.78;5022714;28;20022;-82
2022/06/03 07:37:07;;;;;;;6.38;5.30;;;;;;;22.93;40.98;101699.56;5020160;28;20018;-81
2022/06/03 07:39:58;;;;;;;6.32;5.45;;;;;;;23.00;41.35;101691.56;5025090;28;20014;-81
2022/06/03 07:43:10;;;;;;;5.43;4.95;;;;;;;23.14;40.11;101703.56;5024033;28;20031;-82
2022/06/03 07:45:43;;;;;;;5.43;4.78;;;;;;;23.13;38.53;101707.28;5080584;28;20022;-81
2022/06/03 07:48:16;;;;;;;8.93;4.35;;;;;;;23.28;37.98;101698.19;5036487;28;20014;-80
2022/06/03 07:51:09;;;;;;;7.43;4.80;;;;;;;23.46;39.89;101697.03;5034652;27;20022;-80
2022/06/03 07:53:50;;;;;;;7.25;5.47;;;;;;;23.60;39.28;101692.69;5048479;27;20035;-81
2022/06/03 07:56:24;;;;;;;6.95;5.10;;;;;;;23.79;38.81;101699.47;5046789;27;20006;-81
2022/06/03 07:58:53;;;;;;;6.00;4.78;;;;;;;24.09;38.28;101705.78;5036174;28;20034;-80
2022/06/03 08:01:27;;;;;;;7.03;5.25;;;;;;;24.23;37.98;101700.56;5037018;28;20007;-80
2022/06/03 08:03:53;;;;;;;6.55;5.82;;;;;;;24.41;37.97;101690.16;5037559;28;20018;-80
2022/06/03 08:06:31;;;;;;;6.30;5.70;;;;;;;24.80;37.83;101680.84;5037842;28;20025;-81
2022/06/03 08:11:45;;;;;;;6.10;5.57;;;;;;;25.00;36.80;101672.09;5042490;28;20090;-82
2022/06/03 08:14:11;;;;;;;6.85;5.65;;;;;;;25.09;37.11;101669.03;5033442;28;20022;-80
2022/06/03 08:16:39;;;;;;;10.80;5.65;;;;;;;25.34;36.38;101665.94;5029981;28;20056;-82
2022/06/03 08:19:21;;;;;;;8.18;6.10;;;;;;;25.47;37.46;101654.34;5036072;28;20025;-83
2022/06/03 08:21:52;;;;;;;7.88;6.50;;;;;;;25.54;36.18;101648.97;5040427;27;20034;-83
2022/06/03 08:24:24;;;;;;;8.73;5.82;;;;;;;25.66;35.67;101666.41;5025938;28;20074;-83
2022/06/03 08:27:10;;;;;;;6.70;5.72;;;;;;;25.59;36.48;101658.19;5036924;28;20026;-83
2022/06/03 08:29:40;;;;;;;7.35;6.13;;;;;;;25.51;36.16;101652.06;5026881;28;20021;-83
2022/06/03 08:32:20;;;;;;;7.70;6.70;;;;;;;25.66;36.36;101652.81;5036988;28;20048;-83
2022/06/03 08:34:49;;;;;;;6.90;6.20;;;;;;;25.45;36.33;101651.00;5036792;28;20018;-83
2022/06/03 08:37:20;;;;;;;6.80;5.95;;;;;;;25.49;35.64;101663.16;5037171;28;20026;-82
2022/06/03 08:39:47;;;;;;;8.68;6.30;;;;;;;25.47;35.18;101668.78;5038032;28;20034;-83
2022/06/03 08:42:42;;;;;;;7.10;5.72;;;;;;;25.57;34.80;101660.28;5041646;27;20065;-82
2022/06/03 08:45:20;;;;;;;6.10;5.50;;;;;;;25.84;35.67;101650.41;5046020;27;20034;-82
2022/06/03 08:47:57;;;;;;;9.63;5.78;;;;;;;26.03;35.77;101658.97;5037149;28;20025;-83
2022/06/03 08:50:25;;;;;;;6.53;5.13;;;;;;;26.11;33.94;101660.66;5036302;27;20006;-83
2022/06/03 08:53:06;;;;;;;5.65;5.13;;;;;;;26.15;34.62;101661.97;5036856;28;20024;-83
2022/06/03 08:55:54;;;;;;;8.10;6.15;;;;;;;26.26;34.46;101663.25;5044645;27;20016;-83
2022/06/03 08:58:27;;;;;;;6.85;6.20;;;;;;;26.33;34.56;101659.53;5024998;28;20021;-83
2022/06/03 09:01:01;;;;;;;8.60;6.28;;;;;;;26.33;33.96;101662.25;5036712;28;20014;-83
2022/06/03 09:03:30;;;;;;;6.35;5.75;;;;;;;26.58;33.77;101659.00;5036686;28;20047;-82
2022/06/03 09:06:06;;;;;;;7.47;5.63;;;;;;;26.73;33.78;101654.28;5036811;27;20024;-83
2022/06/03 09:08:54;;;;;;;6.60;6.00;;;;;;;26.88;34.61;101651.38;5040670;27;20045;-83
2022/06/03 09:11:29;;;;;;;8.55;6.10;;;;;;;26.90;33.32;101653.91;5035970;28;20052;-82
2022/06/03 09:14:00;;;;;;;6.40;5.80;;;;;;;27.11;32.87;101652.84;5036112;28;20041;-83
2022/06/03 09:16:28;;;;;;;7.40;5.28;;;;;;;27.40;32.44;101654.38;5035957;28;20034;-83
2022/06/03 09:19:05;;;;;;;9.55;4.75;;;;;;;27.44;31.47;101655.63;5036041;27;20014;-82
2022/06/03 09:21:34;;;;;;;6.63;4.88;;;;;;;27.32;31.30;101665.50;5036509;28;20033;-83
2022/06/03 09:24:13;;;;;;;5.80;5.13;;;;;;;27.55;31.67;101667.00;5039863;28;20024;-83
2022/06/03 09:26:42;;;;;;;6.70;4.53;;;;;;;27.58;30.51;101664.66;5038748;28;20018;-83
2022/06/03 09:29:11;;;;;;;5.55;4.53;;;;;;;27.62;29.50;101668.66;5035822;28;20045;-82
2022/06/03 09:31:39;;;;;;;7.55;4.80;;;;;;;27.66;30.44;101659.00;5035736;28;20026;-83
2022/06/03 09:34:07;;;;;;;5.28;4.55;;;;;;;27.94;30.92;101651.63;5036156;28;20018;-82
2022/06/03 09:36:33;;;;;;;6.25;4.85;;;;;;;28.11;30.48;101646.53;5036143;28;20007;-82
2022/06/03 09:39:06;;;;;;;5.20;4.72;;;;;;;28.29;29.63;101643.94;5036051;28;20014;-82
2022/06/03 09:41:36;;;;;;;5.07;4.43;;;;;;;28.40;28.68;101636.97;5026819;28;20034;-82
2022/06/03 09:44:03;;;;;;;4.20;3.80;;;;;;;28.70;29.06;101639.16;5033108;28;20037;-82
2022/06/03 09:46:31;;;;;;;6.85;4.35;;;;;;;28.66;28.51;101641.50;5035990;28;20125;-82
2022/06/03 09:48:57;;;;;;;3.55;3.20;;;;;;;28.90;27.63;101639.88;5035796;28;20018;-82
2022/06/03 09:54:21;;;;;;;6.78;3.92;;;;;;;28.94;28.63;101635.66;5046356;27;20044;-83
2022/06/03 09:56:50;;;;;;;3.55;3.25;;;;;;;29.09;26.37;101626.28;5035923;28;20028;-83
2022/06/03 09:59:19;;;;;;;3.97;3.10;;;;;;;29.14;25.71;101618.22;5035801;28;20039;-83
2022/06/03 10:01:45;;;;;;;3.78;3.00;;;;;;;29.24;26.84;101624.06;5035853;28;20029;-83
2022/06/03 10:04:12;;;;;;;4.53;3.38;;;;;;;29.40;26.22;101613.66;5035697;28;20026;-83
2022/06/03 10:06:43;;;;;;;3.30;3.00;;;;;;;29.54;26.44;101615.16;5035355;28;20041;-83
2022/06/03 10:15:37;;;;;;;4.10;2.70;;;;;;;29.76;24.95;101620.22;5032794;28;20033;-83
2022/06/03 10:17:31;;;;;;;4.95;2.67;;;;;;;29.60;23.93;101619.75;5035631;28;20033;-83
2022/06/03 10:19:56;;;;;;;4.45;2.67;;;;;;;29.44;24.91;101612.13;5035531;28;20017;-83
2022/06/03 10:22:21;;;;;;;4.17;2.50;;;;;;;29.56;25.07;101610.34;5044194;27;20022;-83
2022/06/03 10:24:48;;;;;;;4.53;2.50;;;;;;;29.65;25.17;101605.41;5042021;27;20281;-83
2022/06/03 10:27:18;;;;;;;2.60;2.40;;;;;;;29.81;25.95;101588.41;5039144;28;20304;-83
2022/06/03 10:29:50;;;;;;;3.05;2.03;;;;;;;29.63;22.91;101597.41;5038699;28;20092;-83
2022/06/03 10:32:19;;;;;;;5.38;2.33;;;;;;;29.76;23.09;101592.84;5031798;28;20050;-83
2022/06/03 10:34:45;;;;;;;3.70;1.77;;;;;;;29.78;23.83;101588.00;5036674;28;20022;-83
2022/06/03 10:37:20;;;;;;;2.88;1.80;;;;;;;29.76;24.63;101590.97;5024910;28;20057;-83
2022/06/03 10:39:45;;;;;;;3.13;1.98;;;;;;;29.89;22.37;101587.25;5038380;28;20030;-82
2022/06/03 10:42:20;;;;;;;2.47;2.15;;;;;;;29.84;23.66;101598.03;5039072;28;20032;-83
2022/06/03 10:44:48;;;;;;;5.90;2.08;;;;;;;29.87;23.92;101592.13;5041061;27;20051;-81
2022/06/03 10:47:21;;;;;;;3.67;2.00;;;;;;;29.99;24.79;101598.50;5042775;27;20013;-82
2022/06/03 10:49:59;;;;;;;2.88;2.00;;;;;;;30.27;23.90;101597.94;5038736;28;20010;-82
2022/06/03 11:01:06;;;;;;;3.97;1.70;;;;;;;30.46;21.81;101586.13;5038656;28;20053;-81
2022/06/03 11:03:33;;;;;;;1.77;1.60;;;;;;;30.55;21.92;101584.75;5035086;27;20058;-81
2022/06/03 11:06:14;;;;;;;1.33;1.23;;;;;;;30.70;22.19;101578.84;5024447;28;20269;-80
2022/06/03 11:08:49;;;;;;;2.28;1.00;;;;;;;30.58;21.98;101568.66;5031946;28;20025;-80
2022/06/03 11:11:30;;;;;;;1.23;1.02;;;;;;;30.75;22.92;101576.22;5038179;28;20026;-80
2022/06/03 11:13:55;;;;;;;1.90;1.70;;;;;;;30.67;21.79;101577.38;5038359;28;20018;-80
2022/06/03 11:16:25;;;;;;;1.93;1.30;;;;;;;30.66;22.05;101580.34;5024171;28;20025;-80
2022/06/03 11:18:51;;;;;;;1.27;1.17;;;;;;;30.88;22.29;101578.75;5038018;28;20285;-80
2022/06/03 11:21:28;;;;;;;1.23;1.13;;;;;;;30.75;21.54;101577.03;5031333;27;20030;-80
2022/06/03 11:23:56;;;;;;;0.75;0.75;;;;;;;30.75;20.89;101577.03;5036887;28;20093;-80
2022/06/03 11:26:33;;;;;;;;;;;;;;;31.33;23.11;101569.16;5032917;28;20029;-80
2022/06/03 11:29:06;;;;;;;2.63;0.90;;;;;;;30.87;20.71;101565.28;5021369;28;19905;-80
2022/06/03 11:31:37;;;;;;;1.83;1.08;;;;;;;30.67;20.85;101563.66;5030950;28;20057;-80
2022/06/03 11:34:06;;;;;;;1.10;1.10;;;;;;;30.31;20.01;101562.69;5026879;28;20038;-79
2022/06/03 11:36:47;;;;;;;1.42;1.23;;;;;;;30.06;20.56;101558.19;5028547;28;20046;-79
2022/06/03 11:39:33;;;;;;;1.52;1.25;;;;;;;30.08;21.29;101558.78;5023614;28;20093;-79
2022/06/03 11:42:09;;;;;;;1.60;1.50;;;;;;;30.18;21.87;101558.22;5015584;28;20035;-80
2022/06/03 11:44:53;;;;;;;1.95;0.90;;;;;;;30.21;21.95;101557.78;5017892;28;20007;-81
2022/06/03 11:47:31;;;;;;;1.40;1.27;;;;;;;30.36;21.64;101556.50;5023991;28;20459;-83
2022/06/03 11:49:56;;;;;;;1.60;1.50;;;;;;;30.08;22.20;101564.25;5036773;28;20026;-83
2022/06/03 11:52:23;;;;;;;2.25;1.33;;;;;;;30.30;21.41;101563.75;5045905;28;20114;-82
2022/06/03 11:54:51;;;;;;;2.97;1.58;;;;;;;30.12;21.39;101569.28;5022013;28;20367;-82
2022/06/03 11:57:17;;;;;;;;;;;;;;;30.57;22.48;101571.63;5029072;28;20094;-82
2022/06/03 11:59:50;;;;;;;1.50;1.25;;;;;;;30.08;21.35;101558.78;5023263;28;19909;-82
2022/06/03 12:02:20;;;;;;;1.95;1.30;;;;;;;30.25;20.98;101578.16;5017308;28;20030;-83
2022/06/03 12:04:51;;;;;;;1.45;1.35;;;;;;;30.30;22.26;101568.41;5016630;28;20082;-81
2022/06/03 12:07:51;;;;;;;1.35;1.10;;;;;;;30.26;21.98;101563.38;5017027;28;20031;-82
2022/06/03 12:10:23;;;;;;;2.35;1.00;;;;;;;30.20;21.78;101569.78;5015135;28;20030;-81
2022/06/03 12:13:15;;;;;;;1.73;1.60;;;;;;;29.97;22.28;101565.03;5019103;28;20041;-82
2022/06/03 12:15:58;;;;;;;3.65;1.67;;;;;;;29.97;22.23;101553.25;5010614;28;20038;-82
2022/06/03 12:18:32;;;;;;;2.67;1.20;;;;;;;30.04;23.58;101556.72;5019005;28;20040;-82
2022/06/03 12:21:34;;;;;;;1.90;1.45;;;;;;;30.10;22.73;101552.25;5017085;28;20030;-82
2022/06/03 12:24:23;;;;;;;2.72;1.40;;;;;;;30.11;22.64;101546.53;5003346;28;20062;-80
2022/06/03 12:26:50;;;;;;;2.88;1.70;;;;;;;29.75;21.65;101555.59;5018713;28;20032;-81
2022/06/03 12:29:25;;;;;;;1.58;1.48;;;;;;;29.53;23.35;101545.09;5006941;28;20022;-81
2022/06/03 12:31:51;;;;;;;2.20;1.67;;;;;;;29.54;22.37;101541.28;5019447;28;20026;-81
2022/06/03 12:34:20;;;;;;;2.88;1.20;;;;;;;29.47;21.67;101535.03;5017596;28;20025;-82
2022/06/03 12:36:51;;;;;;;2.33;1.10;;;;;;;29.47;22.70;101532.31;5017412;28;20025;-83
2022/06/03 12:39:34;;;;;;;2.90;1.60;;;;;;;29.38;23.71;101539.97;5017407;28;20458;-82
2022/06/03 12:42:04;;;;;;;2.47;1.60;;;;;;;29.21;24.58;101537.00;5021580;28;20018;-83
2022/06/03 12:44:41;;;;;;;2.85;1.63;;;;;;;29.28;24.73;101528.72;5001027;28;20033;-81
2022/06/03 12:47:18;;;;;;;3.55;2.00;;;;;;;29.18;24.11;101540.19;5019635;28;20034;-81
2022/06/03 12:49:43;;;;;;;4.57;1.88;;;;;;;28.97;24.56;101530.44;5019460;28;20022;-82
2022/06/03 12:52:12;;;;;;;2.77;1.80;;;;;;;28.83;23.84;101537.06;5017805;28;20078;-82
2022/06/03 12:54:47;;;;;;;2.22;1.50;;;;;;;28.75;24.78;101532.72;5017250;28;20026;-82
2022/06/03 12:57:23;;;;;;;2.10;1.25;;;;;;;28.53;23.52;101526.78;5006275;28;20098;-82